Rickenbacker International Airport
KLCK : now visible

Airfield :











YOU CAN JOIN US ON...

 
LOGIN :

Register | Disclaimer

   EN    FR    IT 

 









Legend :    VFR   Marginal VFR   IFR   Intensive IFR   Very Intensive IFR
Visi :
Ceiling :
>= 8 km
>= 3000ft
5 to 8 km
1000 to 3000 ft
1500m to 5 km
500 to 1000 ft
800 to 1500m
200 to 500 ft
< 800m
< 200 ft
Symbols :   Thunderstorms  Fog  Heavy snow  Heavy precipitations  Wind > 20 kt






- Airport Elevation : 744 ft


KLCK - Rickenbacker International

CURRENT METAR :
  • 270355Z AUTO 30010KT 2SM -SN SCT008 BKN013 OVC026 M03/M04 A2990 RMK AO2 T10271043

EXPIRED METARs :
  • 270255Z AUTO 30013G16KT 4SM -SN BKN011 OVC018 M02/M04 A2987 RMK AO2 T10201036
  • 270155Z AUTO 29015G21KT 10SM BKN016 OVC020 M01/M03 A2984 RMK AO2 T10081030

TAF COR TAF KLCK
Valid from the 27 at 04:00 until the 28 at 00:00 UTC


270417Z 2704/2724 30010G19KT 4SM -SN BKN016 OVC020
TEMPO 2704/2706 2SM -SN
FM270700 30013G23KT 5SM -SN OVC015
FM271300 29014G25KT P6SM VCSH OVC025
FM272000 28017G28KT P6SM OVC050



MET'MAP, your aeronautical weather chart ! - Copyright ORBIFLY December 2007 - Disclaimer

ORBIFLY MET'MAP TEAM :

Programming & Development : Alexandra Zaïnal
Concept & original design : Baudouin d'Aumeries
Assistance for programming : Marc-Olivier Méhu
Technical & hardware support : Manuel Goepfert

Contact : metmap@orbifly.com




SOURCES & CREDITS :

   NOAA       Earth
Advisory